Manawanui Hmnzs — ZMLR — position and weather

sailwx.info

Track history (hours):
 
Tides and Currents Weather Stations Pressure Air Temp Water Temp Dewpoint Dewpoint Depression Visibility Wind Speed Wind Dir Waves Ship Positions

Manawanui Hmnzs

Last reported at 2015-Jul-30 04:05 UTC. Time now 2015-Jul-31 07:22 UTC.
Position S 36°50' E 174°47'.

MMSI: 512000300.

Date/timePositionNaut miles runAvg speedWind from/ knotsBaromVisibWave heightAir tempDewpointWater temp
2015-Jul-30 04:05S 36°50' E 174°47'3 5.3
2015-Jul-30 03:33S 36°50' E 174°51'4 2.9
2015-Jul-30 02:10S 36°49' E 174°56'0 0.0
2015-Jul-30 01:33S 36°49' E 174°56'0 0.0
2015-Jul-30 00:34S 36°49' E 174°56'0 0.0
2015-Jul-29 23:33S 36°49' E 174°56'0 0.0
2015-Jul-29 22:33S 36°49' E 174°56'0 0.0
2015-Jul-29 21:34S 36°49' E 174°56'0 0.1
2015-Jul-29 20:33S 36°49' E 174°56'7 7.0
2015-Jul-29 19:34S 36°50' E 174°47'  
2015-Jul-24 02:17S 36°50' E 174°47'2 3.2
2015-Jul-24 01:33S 36°50' E 174°50'4 3.7
2015-Jul-24 00:34S 36°50' E 174°55'5 4.6
2015-Jul-23 23:34S 36°46' E 174°57'5 5.4
2015-Jul-23 22:33S 36°41' E 174°53'1 1.1
2015-Jul-23 21:34S 36°42' E 174°53'  
Track history (hours):
 
Tides and Currents Weather Stations Pressure Air Temp Water Temp Dewpoint Dewpoint Depression Visibility Wind Speed Wind Dir Waves Ship Positions

Manawanui Hmnzs

Last reported at 2015-Jul-30 04:05 UTC. Time now 2015-Jul-31 07:22 UTC.
Position S 36°50' E 174°47'.

MMSI: 512000300.

Date/timePositionNaut miles runAvg speedWind from/ knotsBaromVisibWave heightAir tempDewpointWater temp
2015-Jul-30 04:05S 36°50' E 174°47'3 5.3
2015-Jul-30 03:33S 36°50' E 174°51'4 2.9
2015-Jul-30 02:10S 36°49' E 174°56'0 0.0
2015-Jul-30 01:33S 36°49' E 174°56'0 0.0
2015-Jul-30 00:34S 36°49' E 174°56'0 0.0
2015-Jul-29 23:33S 36°49' E 174°56'0 0.0
2015-Jul-29 22:33S 36°49' E 174°56'0 0.0
2015-Jul-29 21:34S 36°49' E 174°56'0 0.1
2015-Jul-29 20:33S 36°49' E 174°56'7 7.0
2015-Jul-29 19:34S 36°50' E 174°47'  
2015-Jul-24 02:17S 36°50' E 174°47'2 3.2
2015-Jul-24 01:33S 36°50' E 174°50'4 3.7
2015-Jul-24 00:34S 36°50' E 174°55'5 4.6
2015-Jul-23 23:34S 36°46' E 174°57'5 5.4
2015-Jul-23 22:33S 36°41' E 174°53'1 1.1
2015-Jul-23 21:34S 36°42' E 174°53'  

Dump ship's entire track history